Albany Township, Maine
Current Conditions -  °F | °C
As of 7:52 PM on Wednesday 17 Dec 2014 (Local Time) from KBML Reporting Station
Light Rain Light Rain  
Wind Chill: 34°   Ceiling: 1300
Heat Index: 34°   Visibility: 3mi
Dew Point: 32°   Wind: 0mph
Humidity: 92%   Direction: NA
Pressure: 29.68"   Gusts: NA
Location:  44.3718°N, 70.8421°W
Report Text: KBML 180052Z AUTO 00000KT 3SM -RA BR SCT006 OVC013 01/00 A2968 RMK AO2 RAB28 SLP064 P0001 T00110000
Loading
Personal Weather Stations






























Interactive Weather Map New forecast layout! Learn more

10-Day Weather Forecast

Advertisements
Track Severe Weather on mobile